Petrolia, TX

8:30 AM CDT on August 04, 2015 (GMT -0500)
Wellborn Ranch | | Change Station
CLOSE
Current Station
Personal Weather Station
Location: Henrietta, TX
Elevation: 892 ft
Nearby Weather Stations

Elev 892 ft 33.84 °N, 98.16 °W | Updated 24 seconds ago

Overcast
Overcast
77.1 °F
Feels Like 79 °F
N
7.0
Wind Variable Wind from ENE
Gusts 15.0 mph

Today
High -- | Low -- °F
--% Chance of Precip.
Yesterday
High -- | Low -- °F
Precip. -- in
6:46 AM 8:31 PM
Waning Gibbous, 77% visible
Pressure 29.91 in
Visibility 9.0 miles
Clouds Mostly Cloudy 9000 ft
Overcast 12000 ft
Heat Index 79 °F
Dew Point 68 °F
Humidity 74%
Rainfall 0.00 in
Snow Depth Not available.
UV 0 out of 12
Pollen 5.10 out of 12
Air Quality Not available.
Flu Activity Not available.
METAR KSPS 041252Z 07011KT 9SM -RA BKN090 OVC120 23/21 A2995 RMK AO2 LTG DSNT NW RAB46 SLP128 P0000 T02280206

More Conditions Fewer Conditions

Pressure 29.91 in
Visibility 9.0 miles
Clouds Mostly Cloudy 9000 ft
Overcast 12000 ft
Heat Index 79 °F
Dew Point 68 °F
Humidity 74%
Rainfall 0.00 in
Snow Depth Not available.
UV 0 out of 12
Pollen 5.10 out of 12
Air Quality Not available.
Flu Activity Not available.
METAR KSPS 041252Z 07011KT 9SM -RA BKN090 OVC120 23/21 A2995 RMK AO2 LTG DSNT NW RAB46 SLP128 P0000 T02280206

More Conditions Fewer Conditions

10-Day Weather Forecast

×

Almanac

Astronomy

Aug. 04, 2015 Rise Set
Actual Time
Civil Twilight
Nautical Twilight
Astronomical Twilight
Moon
Length of Visible Light
Length of Day
Tomorrow will be .
, % of the Moon is Illuminated

Today's Extremes

State Highs State Lows

Community

WunderPhotos

Upload Photos

1,843,915 photos uploaded!

WunderBlogs® & News

Nearby

Air Quality

  Air Quality AQ Index Pollutant
Not available.

Snow Depth

Station Depth Elevation

Earthquake Activity

City Distance Mag. Time & Date
Minimum magnitude displayed is 2.5.

Coastal Water Temperatures

Place Temperature

Stations

Nearby Weather Stations

Station Location Temp. Windchill Dew Point Humidity Wind Precip. Elev Updated Type